createdAt,value
2023-01-29T00:00:14.092Z,99717.97
2023-01-29T00:02:43.325Z,99717.63
2023-01-29T00:05:26.611Z,99725.25
2023-01-29T00:07:56.460Z,99723.81
2023-01-29T00:10:25.598Z,99726.69
2023-01-29T00:12:56.178Z,99724.38
2023-01-29T00:15:23.747Z,99728.63
2023-01-29T00:17:51.251Z,99724.22
2023-01-29T00:20:19.304Z,99737.72
2023-01-29T00:22:46.979Z,99740.91
2023-01-29T00:25:14.555Z,99741.06
2023-01-29T00:27:42.014Z,99756.47
2023-01-29T00:30:12.960Z,99757.94
2023-01-29T00:32:41.957Z,99757.91
2023-01-29T00:35:10.459Z,99761.28
2023-01-29T00:37:38.129Z,99756.94
2023-01-29T00:40:06.749Z,99753.56
2023-01-29T00:42:52.735Z,99763.19
2023-01-29T00:45:20.305Z,99761.13
2023-01-29T00:47:47.984Z,99757.00
2023-01-29T00:50:15.643Z,99758.06
2023-01-29T00:52:44.051Z,99759.34
2023-01-29T00:55:12.457Z,99762.09
2023-01-29T00:57:40.255Z,99757.63
2023-01-29T01:00:12.296Z,99761.47
2023-01-29T01:02:58.354Z,99766.41
2023-01-29T01:05:27.351Z,99759.19
2023-01-29T01:07:58.199Z,99763.94
2023-01-29T01:10:34.194Z,99763.25
2023-01-29T01:13:08.603Z,99765.31
2023-01-29T01:15:39.856Z,99761.41
2023-01-29T01:18:07.654Z,99755.91
2023-01-29T01:20:36.963Z,99761.50
2023-01-29T01:23:05.244Z,99763.91
2023-01-29T01:25:33.050Z,99762.31
2023-01-29T01:28:01.336Z,99758.69
2023-01-29T01:30:28.980Z,99762.31
2023-01-29T01:32:56.513Z,99762.22
2023-01-29T01:35:24.069Z,99759.34
2023-01-29T01:37:51.617Z,99761.50
2023-01-29T01:40:22.406Z,99767.94
2023-01-29T01:42:56.467Z,99765.84
2023-01-29T01:45:28.286Z,99760.38
2023-01-29T01:48:17.925Z,99758.56
2023-01-29T01:51:03.321Z,99770.97
2023-01-29T01:53:39.082Z,99760.84
2023-01-29T01:56:11.632Z,99768.91
2023-01-29T01:58:44.215Z,99769.53
2023-01-29T02:01:12.864Z,99777.81
2023-01-29T02:04:32.248Z,99777.81
2023-01-29T02:07:23.267Z,99779.59
2023-01-29T02:10:00.939Z,99778.84
2023-01-29T02:12:31.539Z,99774.47
2023-01-29T02:14:59.831Z,99778.84
2023-01-29T02:17:27.376Z,99783.59
2023-01-29T02:20:20.817Z,99781.78
2023-01-29T02:23:42.279Z,99797.59
2023-01-29T02:26:37.211Z,99790.28
2023-01-29T02:29:25.256Z,99794.25
2023-01-29T02:32:09.848Z,99797.09
2023-01-29T02:35:29.996Z,99798.84
2023-01-29T02:38:09.420Z,99805.84
2023-01-29T02:40:41.206Z,99800.63
2023-01-29T02:43:16.123Z,99803.22
2023-01-29T02:46:09.462Z,99799.59
2023-01-29T02:49:10.769Z,99805.84
2023-01-29T02:52:15.280Z,99805.34
2023-01-29T02:55:04.845Z,99803.53
2023-01-29T02:57:41.076Z,99810.28
2023-01-29T03:00:19.491Z,99808.22
2023-01-29T03:03:11.276Z,99804.91
2023-01-29T03:05:58.562Z,99810.56
2023-01-29T03:08:45.633Z,99809.50
2023-01-29T03:11:16.459Z,99823.47
2023-01-29T03:14:00.329Z,99815.16
2023-01-29T03:16:50.383Z,99819.91
2023-01-29T03:19:29.062Z,99821.41
2023-01-29T03:22:04.199Z,99829.69
2023-01-29T03:24:58.432Z,99820.31
2023-01-29T03:27:55.851Z,99829.75
2023-01-29T03:30:47.033Z,99831.56
2023-01-29T03:33:30.022Z,99831.06
2023-01-29T03:36:05.730Z,99835.00
2023-01-29T03:38:33.571Z,99839.09
2023-01-29T03:41:21.555Z,99828.47
2023-01-29T03:44:14.167Z,99834.41
2023-01-29T03:46:57.452Z,99827.44
2023-01-29T03:49:54.880Z,99837.69
2023-01-29T03:52:52.217Z,99837.13
2023-01-29T03:56:14.448Z,99838.63
2023-01-29T03:58:55.328Z,99839.56
2023-01-29T04:01:40.995Z,99838.03
2023-01-29T04:04:26.141Z,99838.41
2023-01-29T04:06:58.562Z,99839.16
2023-01-29T04:09:37.541Z,99847.78
2023-01-29T04:12:10.276Z,99844.91
2023-01-29T04:14:40.767Z,99847.22
2023-01-29T04:17:23.753Z,99841.25
2023-01-29T04:20:01.656Z,99849.88
2023-01-29T04:22:37.152Z,99851.19
2023-01-29T04:25:16.160Z,99854.84
2023-01-29T04:28:22.175Z,99855.69
2023-01-29T04:31:07.244Z,99857.81
2023-01-29T04:33:48.598Z,99857.28
2023-01-29T04:36:39.891Z,99864.69
2023-01-29T04:39:28.862Z,99867.50
2023-01-29T04:42:15.822Z,99869.97
2023-01-29T04:45:23.158Z,99864.28
2023-01-29T04:48:07.890Z,99872.47
2023-01-29T04:51:13.266Z,99866.72
2023-01-29T04:53:57.771Z,99879.53
2023-01-29T04:56:49.453Z,99890.06
2023-01-29T04:59:40.777Z,99879.53
2023-01-29T05:02:10.749Z,99886.34
2023-01-29T05:04:41.599Z,99891.66
2023-01-29T05:07:13.839Z,99887.72
2023-01-29T05:09:45.649Z,99893.19
2023-01-29T05:12:16.655Z,99891.97
2023-01-29T05:14:46.864Z,99900.75
2023-01-29T05:17:20.832Z,99899.72
2023-01-29T05:19:48.663Z,99906.28
2023-01-29T05:22:22.745Z,99909.03
2023-01-29T05:24:51.394Z,99913.09
2023-01-29T05:27:51.182Z,99915.09
2023-01-29T05:30:18.959Z,99914.50
2023-01-29T05:32:46.693Z,99922.66
2023-01-29T05:35:14.177Z,99921.38
2023-01-29T05:37:41.743Z,99922.00
2023-01-29T05:40:10.239Z,99929.06
2023-01-29T05:42:37.780Z,99927.72
2023-01-29T05:45:06.258Z,99931.47
2023-01-29T05:47:33.720Z,99937.19
2023-01-29T05:50:02.287Z,99936.78
2023-01-29T05:52:29.773Z,99939.28
2023-01-29T05:54:57.319Z,99944.16
2023-01-29T05:57:24.816Z,99940.91
2023-01-29T05:59:52.332Z,99952.25
2023-01-29T06:02:19.912Z,99950.31
2023-01-29T06:04:47.400Z,99950.94
2023-01-29T06:07:14.865Z,99956.91
2023-01-29T06:09:42.341Z,99959.38
2023-01-29T06:12:12.112Z,99951.91
2023-01-29T06:14:39.673Z,99955.91
2023-01-29T06:17:07.414Z,99962.66
2023-01-29T06:19:35.215Z,99971.75
2023-01-29T06:22:02.716Z,99968.41
2023-01-29T06:24:30.481Z,99970.78
2023-01-29T06:26:57.975Z,99977.22
2023-01-29T06:29:27.787Z,99976.72
2023-01-29T06:31:55.412Z,99978.38
2023-01-29T06:34:22.983Z,99979.59
2023-01-29T06:36:50.551Z,99983.91
2023-01-29T06:39:17.999Z,99988.50
2023-01-29T06:41:46.334Z,99997.13
2023-01-29T06:44:15.003Z,99997.19
2023-01-29T06:46:42.534Z,99997.38
2023-01-29T06:49:10.641Z,100001.72
2023-01-29T06:51:38.286Z,100001.63
2023-01-29T06:54:08.533Z,100002.75
2023-01-29T06:56:36.157Z,100002.34
2023-01-29T06:59:04.927Z,100008.97
2023-01-29T07:01:36.332Z,100004.22
2023-01-29T07:04:05.656Z,100005.16
2023-01-29T07:06:33.733Z,100010.47
2023-01-29T07:09:05.960Z,100010.22
2023-01-29T07:11:38.050Z,100015.78
2023-01-29T07:14:05.932Z,100021.91
2023-01-29T07:16:34.391Z,100020.44
2023-01-29T07:19:02.413Z,100021.56
2023-01-29T07:21:29.991Z,100022.56
2023-01-29T07:23:57.841Z,100019.97
2023-01-29T07:26:25.450Z,100025.59
2023-01-29T07:28:53.006Z,100025.94
2023-01-29T07:31:21.677Z,100028.97
2023-01-29T07:33:49.257Z,100026.88
2023-01-29T07:36:16.820Z,100027.88
2023-01-29T07:38:44.335Z,100025.78
2023-01-29T07:41:12.756Z,100020.50
2023-01-29T07:43:40.356Z,100027.88
2023-01-29T07:46:08.141Z,100025.38
2023-01-29T07:48:37.359Z,100025.19
2023-01-29T07:51:05.568Z,100031.94
2023-01-29T07:53:33.204Z,100034.56
2023-01-29T07:56:00.677Z,100035.50
2023-01-29T07:58:28.246Z,100034.88
2023-01-29T08:00:55.753Z,100038.44
2023-01-29T08:03:23.228Z,100044.31
2023-01-29T08:05:50.839Z,100040.06
2023-01-29T08:08:19.377Z,100040.28
2023-01-29T08:10:47.065Z,100055.81
2023-01-29T08:13:14.786Z,100048.38
2023-01-29T08:15:45.991Z,100050.50
2023-01-29T08:18:14.572Z,100057.09
2023-01-29T08:20:44.647Z,100051.88
2023-01-29T08:23:16.929Z,100052.31
2023-01-29T08:25:44.821Z,100052.59
2023-01-29T08:28:14.208Z,100060.50
2023-01-29T08:30:43.087Z,100057.91
2023-01-29T08:33:10.862Z,100059.97
2023-01-29T08:35:41.278Z,100057.63
2023-01-29T08:38:10.776Z,100058.09
2023-01-29T08:40:39.410Z,100064.63
2023-01-29T08:43:09.461Z,100064.97
2023-01-29T08:45:41.117Z,100058.09
2023-01-29T08:48:09.790Z,100063.59
2023-01-29T08:50:38.586Z,100066.00
2023-01-29T08:53:08.516Z,100064.03
2023-01-29T08:55:38.953Z,100069.84
2023-01-29T08:58:10.044Z,100073.75
2023-01-29T09:00:39.610Z,100071.44
2023-01-29T09:03:08.270Z,100074.78
2023-01-29T09:05:38.143Z,100073.41
2023-01-29T09:08:07.783Z,100069.41
2023-01-29T09:10:36.153Z,100073.38
2023-01-29T09:13:04.165Z,100076.97
2023-01-29T09:15:32.114Z,100075.09
2023-01-29T09:18:04.288Z,100071.72
2023-01-29T09:20:32.110Z,100075.56
2023-01-29T09:23:03.563Z,100067.78
2023-01-29T09:25:31.120Z,100069.66
2023-01-29T09:28:01.596Z,100069.72
2023-01-29T09:30:31.603Z,100070.97
2023-01-29T09:33:04.054Z,100071.31
2023-01-29T09:35:31.883Z,100069.78
2023-01-29T09:38:01.375Z,100066.91
2023-01-29T09:40:53.452Z,100068.22
2023-01-29T09:43:59.178Z,100062.78
2023-01-29T09:46:48.266Z,100058.34
2023-01-29T09:49:35.796Z,100060.16
2023-01-29T09:52:18.214Z,100052.56
2023-01-29T09:55:00.830Z,100053.56
2023-01-29T09:58:07.366Z,100045.47
2023-01-29T10:00:51.707Z,100046.06
2023-01-29T10:03:36.590Z,100043.28
2023-01-29T10:06:27.997Z,100041.19
2023-01-29T10:09:32.174Z,100032.50
2023-01-29T10:12:30.639Z,100035.75
2023-01-29T10:15:17.563Z,100030.84
2023-01-29T10:18:10.671Z,100027.75
2023-01-29T10:21:06.651Z,100030.00
2023-01-29T10:23:51.069Z,100014.38
2023-01-29T10:26:23.857Z,100017.28
2023-01-29T10:28:55.879Z,100012.06
2023-01-29T10:31:34.344Z,100010.41
2023-01-29T10:34:27.899Z,100011.97
2023-01-29T10:36:59.506Z,100003.31
2023-01-29T10:39:31.048Z,100000.94
2023-01-29T10:42:20.046Z,100003.81
2023-01-29T10:45:18.583Z,99993.59
2023-01-29T10:47:52.893Z,99992.66
2023-01-29T10:50:44.411Z,99982.81
2023-01-29T10:53:35.562Z,99987.16
2023-01-29T10:56:21.913Z,99986.69
2023-01-29T10:59:01.943Z,99983.06
2023-01-29T11:01:29.656Z,99978.84
2023-01-29T11:04:06.135Z,99978.44
2023-01-29T11:06:37.660Z,99970.59
2023-01-29T11:09:36.566Z,99968.91
2023-01-29T11:12:24.040Z,99968.47
2023-01-29T11:15:00.714Z,99969.13
2023-01-29T11:17:29.829Z,99962.69
2023-01-29T11:19:57.670Z,99963.09
2023-01-29T11:22:30.383Z,99956.00
2023-01-29T11:25:20.351Z,99955.47
2023-01-29T11:28:01.971Z,99954.09
2023-01-29T11:30:41.488Z,99944.16
2023-01-29T11:33:25.688Z,99941.88
2023-01-29T11:35:54.289Z,99946.50
2023-01-29T11:38:27.584Z,99943.59
2023-01-29T11:41:18.607Z,99929.41
2023-01-29T11:43:46.223Z,99935.81
2023-01-29T11:46:16.345Z,99930.25
2023-01-29T11:48:59.026Z,99926.56
2023-01-29T11:51:30.317Z,99923.81
2023-01-29T11:54:03.153Z,99931.53
2023-01-29T11:56:39.929Z,99930.31
2023-01-29T11:59:15.371Z,99930.78
2023-01-29T12:01:43.007Z,99935.03
2023-01-29T12:04:24.063Z,99935.09
2023-01-29T12:06:55.988Z,99929.28
2023-01-29T12:09:28.497Z,99918.94
2023-01-29T12:11:56.405Z,99918.00
2023-01-29T12:14:35.321Z,99913.69
2023-01-29T12:17:12.541Z,99910.53
2023-01-29T12:20:18.313Z,99907.91
2023-01-29T12:23:43.969Z,99911.06
2023-01-29T12:26:55.308Z,99907.53
2023-01-29T12:29:57.469Z,99901.16
2023-01-29T12:33:08.807Z,99899.44
2023-01-29T12:35:50.814Z,99896.09
2023-01-29T12:38:24.132Z,99894.25
2023-01-29T12:41:35.178Z,99904.13
2023-01-29T12:44:26.157Z,99894.47
2023-01-29T12:46:58.423Z,99904.28
2023-01-29T12:49:30.541Z,99893.69
2023-01-29T12:52:15.710Z,99903.66
2023-01-29T12:55:06.897Z,99907.91
2023-01-29T12:58:06.530Z,99898.84
2023-01-29T13:00:45.123Z,99912.66
2023-01-29T13:03:46.431Z,99903.09
2023-01-29T13:06:42.724Z,99911.06
2023-01-29T13:09:21.679Z,99908.03
2023-01-29T13:12:12.492Z,99910.03
2023-01-29T13:15:03.398Z,99915.06
2023-01-29T13:17:59.334Z,99915.75
2023-01-29T13:20:34.103Z,99912.97
2023-01-29T13:23:32.582Z,99912.97
2023-01-29T13:26:01.170Z,99905.75
2023-01-29T13:28:29.107Z,99909.44
2023-01-29T13:31:33.840Z,99916.97
2023-01-29T13:34:21.924Z,99920.91
2023-01-29T13:36:59.836Z,99915.06
2023-01-29T13:39:32.263Z,99909.84
2023-01-29T13:42:03.104Z,99912.00
2023-01-29T13:44:41.121Z,99907.81
2023-01-29T13:47:12.423Z,99908.16
2023-01-29T13:49:54.457Z,99916.66
2023-01-29T13:52:42.964Z,99920.72
2023-01-29T13:55:22.674Z,99922.84
2023-01-29T13:57:56.022Z,99927.94
2023-01-29T14:00:35.550Z,99925.38
2023-01-29T14:03:08.691Z,99915.16
2023-01-29T14:05:43.720Z,99924.03
2023-01-29T14:08:14.314Z,99921.19
2023-01-29T14:10:45.440Z,99916.53
2023-01-29T14:13:19.045Z,99922.13
2023-01-29T14:15:59.157Z,99920.09
2023-01-29T14:18:33.406Z,99922.56
2023-01-29T14:21:23.976Z,99913.75
2023-01-29T14:24:01.308Z,99922.34
2023-01-29T14:26:31.650Z,99927.28
2023-01-29T14:29:18.829Z,99929.41
2023-01-29T14:32:25.525Z,99931.47
2023-01-29T14:34:59.032Z,99931.69
2023-01-29T14:37:55.089Z,99937.47
2023-01-29T14:40:29.714Z,99938.03
2023-01-29T14:43:21.772Z,99937.66
2023-01-29T14:45:50.394Z,99937.88
2023-01-29T14:48:53.659Z,99937.88
2023-01-29T14:51:21.453Z,99933.19
2023-01-29T14:54:01.987Z,99945.19
2023-01-29T14:56:47.113Z,99941.50
2023-01-29T14:59:38.978Z,99940.63
2023-01-29T15:02:20.659Z,99935.78
2023-01-29T15:04:54.215Z,99942.25
2023-01-29T15:07:36.744Z,99945.69
2023-01-29T15:10:33.677Z,99945.63
2023-01-29T15:13:15.293Z,99942.00
2023-01-29T15:16:19.990Z,99953.00
2023-01-29T15:18:55.347Z,99955.38
2023-01-29T15:21:23.568Z,99963.19
2023-01-29T15:24:06.753Z,99960.56
2023-01-29T15:26:36.878Z,99967.31
2023-01-29T15:29:05.988Z,99965.75
2023-01-29T15:31:35.817Z,99965.53
2023-01-29T15:34:08.120Z,99964.19
2023-01-29T15:36:59.099Z,99970.19
2023-01-29T15:39:33.252Z,99970.75
2023-01-29T15:42:22.653Z,99967.34
2023-01-29T15:44:58.473Z,99963.44
2023-01-29T15:47:33.783Z,99976.19
2023-01-29T15:50:01.688Z,99975.16
2023-01-29T15:52:35.317Z,99977.75
2023-01-29T15:55:09.777Z,99990.50
2023-01-29T15:57:46.940Z,99987.88
2023-01-29T16:00:39.683Z,99993.09
2023-01-29T16:03:22.069Z,99986.06
2023-01-29T16:05:53.693Z,99996.22
2023-01-29T16:08:27.013Z,99989.44
2023-01-29T16:10:58.788Z,99997.72
2023-01-29T16:13:39.940Z,100000.63
2023-01-29T16:16:24.102Z,99998.50
2023-01-29T16:19:00.549Z,99999.88
2023-01-29T16:21:37.238Z,100007.16
2023-01-29T16:24:16.966Z,100002.69
2023-01-29T16:26:48.795Z,100009.66
2023-01-29T16:29:33.831Z,100011.50
2023-01-29T16:32:03.486Z,100013.09
2023-01-29T16:34:41.868Z,100016.22
2023-01-29T16:37:30.850Z,100020.13
2023-01-29T16:40:00.968Z,100014.69
2023-01-29T16:42:31.116Z,100017.56
2023-01-29T16:44:59.929Z,100022.22
2023-01-29T16:47:29.692Z,100017.28
2023-01-29T16:50:02.019Z,100019.88
2023-01-29T16:52:33.872Z,100023.00
2023-01-29T16:55:13.625Z,100019.78
2023-01-29T16:57:42.094Z,100023.59
2023-01-29T17:00:41.824Z,100014.81
2023-01-29T17:03:17.869Z,100024.41
2023-01-29T17:05:46.487Z,100021.34
2023-01-29T17:08:20.783Z,100025.44
2023-01-29T17:10:51.102Z,100025.53
2023-01-29T17:13:34.381Z,100027.06
2023-01-29T17:16:16.653Z,100037.28
2023-01-29T17:18:44.640Z,100032.91
2023-01-29T17:21:12.157Z,100028.81
2023-01-29T17:23:40.343Z,100030.50
2023-01-29T17:26:12.926Z,100032.06
2023-01-29T17:28:43.040Z,100026.28
2023-01-29T17:31:15.251Z,100025.44
2023-01-29T17:33:44.716Z,100027.50
2023-01-29T17:36:19.367Z,100031.13
2023-01-29T17:38:47.533Z,100027.66
2023-01-29T17:41:31.189Z,100031.06
2023-01-29T17:43:59.852Z,100036.03
2023-01-29T17:46:28.625Z,100036.25
2023-01-29T17:48:56.511Z,100029.53
2023-01-29T17:51:28.932Z,100026.97
2023-01-29T17:53:59.088Z,100032.16
2023-01-29T17:56:29.612Z,100035.84
2023-01-29T17:58:57.495Z,100035.56
2023-01-29T18:01:27.581Z,100033.34
2023-01-29T18:03:55.346Z,100032.66
2023-01-29T18:06:29.455Z,100037.41
2023-01-29T18:08:58.782Z,100031.66
2023-01-29T18:11:28.265Z,100031.94
2023-01-29T18:13:57.791Z,100035.63
2023-01-29T18:16:26.552Z,100033.53
2023-01-29T18:18:54.469Z,100039.50
2023-01-29T18:21:25.004Z,100028.06
2023-01-29T18:23:54.234Z,100038.47
2023-01-29T18:26:22.814Z,100036.84
2023-01-29T18:28:54.377Z,100028.53
2023-01-29T18:31:27.750Z,100027.09
2023-01-29T18:33:58.791Z,100030.13
2023-01-29T18:36:28.467Z,100026.06
2023-01-29T18:38:59.101Z,100017.28
2023-01-29T18:41:29.709Z,100016.28
2023-01-29T18:43:58.431Z,100012.44
2023-01-29T18:46:30.439Z,100012.00
2023-01-29T18:48:57.948Z,100021.38
2023-01-29T18:51:25.591Z,100010.19
2023-01-29T18:53:53.250Z,100017.66
2023-01-29T18:56:22.176Z,100019.19
2023-01-29T18:58:55.961Z,100022.31
2023-01-29T19:01:47.731Z,100022.47
2023-01-29T19:04:16.030Z,100025.66
2023-01-29T19:06:44.672Z,100024.09
2023-01-29T19:09:12.475Z,100026.19
2023-01-29T19:11:41.702Z,100022.22
2023-01-29T19:14:10.214Z,100021.06
2023-01-29T19:16:37.720Z,100026.03
2023-01-29T19:19:06.106Z,100029.19
2023-01-29T19:21:37.504Z,100029.66
2023-01-29T19:24:07.813Z,100032.56
2023-01-29T19:26:39.066Z,100032.53
2023-01-29T19:29:10.286Z,100029.38
2023-01-29T19:31:38.704Z,100029.72
2023-01-29T19:34:06.499Z,100032.28
2023-01-29T19:36:37.350Z,100034.09
2023-01-29T19:39:06.776Z,100036.47
2023-01-29T19:41:54.700Z,100039.47
2023-01-29T19:44:22.797Z,100037.03
2023-01-29T19:46:53.343Z,100037.69
2023-01-29T19:49:23.492Z,100046.44
2023-01-29T19:51:53.436Z,100035.16
2023-01-29T19:54:23.283Z,100033.28
2023-01-29T19:56:51.294Z,100035.81
2023-01-29T19:59:20.427Z,100028.03
2023-01-29T20:01:51.698Z,100031.44
2023-01-29T20:04:20.669Z,100025.28
2023-01-29T20:06:50.293Z,100027.72
2023-01-29T20:09:21.181Z,100026.63
2023-01-29T20:11:49.981Z,100023.50
2023-01-29T20:14:17.665Z,100026.44
2023-01-29T20:16:46.933Z,100040.63
2023-01-29T20:19:16.523Z,100032.22
2023-01-29T20:21:49.197Z,100027.50
2023-01-29T20:24:16.858Z,100032.75
2023-01-29T20:26:47.455Z,100035.88
2023-01-29T20:29:15.640Z,100040.13
2023-01-29T20:31:43.765Z,100049.44
2023-01-29T20:34:11.689Z,100043.59
2023-01-29T20:36:39.668Z,100044.88
2023-01-29T20:39:12.330Z,100048.78
2023-01-29T20:41:44.402Z,100043.75
2023-01-29T20:44:12.744Z,100045.81
2023-01-29T20:46:43.200Z,100045.41
2023-01-29T20:49:11.940Z,100040.75
2023-01-29T20:51:39.524Z,100035.81
2023-01-29T20:54:08.178Z,100047.06
2023-01-29T20:56:40.853Z,100041.38
2023-01-29T20:59:15.150Z,100039.59
2023-01-29T21:01:43.935Z,100037.03
2023-01-29T21:04:12.994Z,100032.31
2023-01-29T21:06:42.952Z,100034.25
2023-01-29T21:09:10.908Z,100039.41
2023-01-29T21:11:42.087Z,100037.56
2023-01-29T21:14:11.361Z,100037.78
2023-01-29T21:16:40.594Z,100041.81
2023-01-29T21:19:10.843Z,100041.88
2023-01-29T21:21:41.129Z,100042.91
2023-01-29T21:24:11.846Z,100041.81
2023-01-29T21:26:39.427Z,100048.31
2023-01-29T21:29:07.986Z,100043.53
2023-01-29T21:31:35.579Z,100048.06
2023-01-29T21:34:04.781Z,100049.59
2023-01-29T21:36:33.832Z,100042.28
2023-01-29T21:39:01.912Z,100036.94
2023-01-29T21:41:47.969Z,100040.13
2023-01-29T21:44:16.511Z,100040.66
2023-01-29T21:46:44.177Z,100032.97
2023-01-29T21:49:12.908Z,100031.78
2023-01-29T21:51:42.317Z,100028.47
2023-01-29T21:54:09.953Z,100027.97
2023-01-29T21:56:37.804Z,100033.16
2023-01-29T21:59:06.569Z,100030.56
2023-01-29T22:01:37.899Z,100021.91
2023-01-29T22:04:08.706Z,100025.66
2023-01-29T22:06:36.243Z,100028.41
2023-01-29T22:09:06.374Z,100022.72
2023-01-29T22:11:34.019Z,100023.38
2023-01-29T22:14:01.559Z,100018.16
2023-01-29T22:16:32.248Z,100013.47
2023-01-29T22:18:59.951Z,100004.38
2023-01-29T22:21:27.651Z,99999.97
2023-01-29T22:23:56.293Z,100003.63
2023-01-29T22:26:25.495Z,99993.84
2023-01-29T22:28:52.932Z,99997.53
2023-01-29T22:31:20.405Z,99991.84
2023-01-29T22:33:47.920Z,99993.31
2023-01-29T22:36:15.746Z,99993.84
2023-01-29T22:38:43.656Z,100000.25
2023-01-29T22:41:11.625Z,100004.41
2023-01-29T22:43:41.037Z,99995.56
2023-01-29T22:46:12.658Z,100004.22
2023-01-29T22:48:40.169Z,100000.41
2023-01-29T22:51:10.983Z,99993.44
2023-01-29T22:53:48.551Z,99990.03
2023-01-29T22:56:17.237Z,99992.56
2023-01-29T22:58:44.905Z,99993.28
2023-01-29T23:01:12.432Z,99990.66
2023-01-29T23:03:39.958Z,99990.16
2023-01-29T23:06:07.422Z,99997.41
2023-01-29T23:08:34.927Z,99996.84
2023-01-29T23:11:17.764Z,99991.66
2023-01-29T23:13:56.140Z,99989.59
2023-01-29T23:16:28.217Z,99983.00
2023-01-29T23:18:56.981Z,99978.13
2023-01-29T23:21:25.923Z,99982.78
2023-01-29T23:23:55.392Z,99980.72
2023-01-29T23:26:41.443Z,99980.97
2023-01-29T23:29:10.166Z,99975.22
2023-01-29T23:31:37.778Z,99969.59
2023-01-29T23:34:05.281Z,99970.69
2023-01-29T23:36:32.734Z,99971.44
2023-01-29T23:39:01.713Z,99971.47
2023-01-29T23:41:29.303Z,99970.69
2023-01-29T23:43:58.061Z,99962.16
2023-01-29T23:46:25.628Z,99961.94
2023-01-29T23:48:53.283Z,99965.00
2023-01-29T23:51:20.834Z,99962.72
2023-01-29T23:53:48.342Z,99965.28
2023-01-29T23:56:15.930Z,99954.41
2023-01-29T23:58:44.907Z,99965.38
